createdAt,value
2018-05-14T00:00:23.058Z,23.3
2018-05-14T00:01:12.863Z,23.2
2018-05-14T00:02:02.651Z,23.2
2018-05-14T00:02:52.162Z,23.2
2018-05-14T00:03:42.874Z,23.2
2018-05-14T00:04:32.818Z,23.2
2018-05-14T00:05:23.185Z,23.2
2018-05-14T00:06:13.258Z,23.2
2018-05-14T00:07:03.274Z,23.3
2018-05-14T00:07:53.095Z,23.2
2018-05-14T00:08:43.173Z,23.2
2018-05-14T00:09:32.922Z,23.3
2018-05-14T00:10:23.432Z,23.1
2018-05-14T00:11:13.627Z,23.3
2018-05-14T00:12:03.646Z,23.2
2018-05-14T00:12:53.461Z,23.1
2018-05-14T00:13:44.075Z,23.2
2018-05-14T00:14:34.133Z,23.2
2018-05-14T00:15:22.838Z,23.2
2018-05-14T00:16:14.233Z,23.2
2018-05-14T00:17:03.750Z,23.2
2018-05-14T00:17:54.391Z,23.2
2018-05-14T00:18:44.148Z,23.2
2018-05-14T00:19:34.489Z,23.1
2018-05-14T00:20:24.297Z,23.2
2018-05-14T00:21:14.630Z,23.2
2018-05-14T00:22:04.433Z,23.3
2018-05-14T00:22:54.260Z,23.1
2018-05-14T00:23:43.695Z,23.2
2018-05-14T00:24:34.700Z,23.2
2018-05-14T00:25:24.408Z,23.2
2018-05-14T00:26:15.038Z,23.2
2018-05-14T00:27:04.805Z,23.2
2018-05-14T00:27:54.835Z,23.2
2018-05-14T00:28:44.908Z,23.3
2018-05-14T00:29:35.264Z,23.2
2018-05-14T00:30:25.023Z,23.1
2018-05-14T00:31:14.827Z,23.2
2018-05-14T00:32:05.487Z,23.2
2018-05-14T00:32:55.490Z,23.2
2018-05-14T00:33:45.320Z,23.2
2018-05-14T00:34:35.137Z,23.2
2018-05-14T00:35:25.737Z,23.2
2018-05-14T00:36:15.452Z,23.2
2018-05-14T00:37:05.353Z,23.3
2018-05-14T00:37:55.857Z,23.2
2018-05-14T00:38:45.975Z,23.3
2018-05-14T00:39:36.007Z,23.1
2018-05-14T00:40:25.792Z,23.3
2018-05-14T00:41:16.177Z,23.3
2018-05-14T00:42:06.217Z,23.2
2018-05-14T00:42:55.503Z,23.1
2018-05-14T00:43:45.772Z,23.3
2018-05-14T00:44:36.379Z,23.1
2018-05-14T00:45:26.472Z,23.1
2018-05-14T00:46:16.539Z,23.2
2018-05-14T00:47:06.311Z,23.2
2018-05-14T00:47:56.342Z,23.2
2018-05-14T00:48:46.441Z,23.2
2018-05-14T00:49:37.620Z,23.3
2018-05-14T00:50:26.845Z,23.2
2018-05-14T00:51:16.884Z,23.2
2018-05-14T00:52:06.386Z,23.2
2018-05-14T00:52:56.766Z,23.2
2018-05-14T00:53:46.793Z,23.2
2018-05-14T00:54:36.841Z,23.2
2018-05-14T00:55:26.916Z,23.2
2018-05-14T00:56:16.708Z,23.3
2018-05-14T00:57:07.311Z,23.2
2018-05-14T00:57:57.385Z,23.3
2018-05-14T00:58:46.593Z,23.2
2018-05-14T00:59:37.480Z,23.2
2018-05-14T01:00:27.341Z,23.2
2018-05-14T01:01:17.056Z,23.2
2018-05-14T01:02:07.713Z,23.1
2018-05-14T01:02:57.280Z,23.1
2018-05-14T01:03:47.548Z,23.1
2018-05-14T01:04:37.918Z,23.1
2018-05-14T01:05:27.948Z,23.3
2018-05-14T01:06:17.710Z,23.3
2018-05-14T01:07:08.081Z,23.2
2018-05-14T01:07:58.217Z,23.1
2018-05-14T01:08:47.910Z,23.2
2018-05-14T01:09:37.995Z,23.3
2018-05-14T01:10:28.037Z,23.2
2018-05-14T01:11:18.378Z,23.2
2018-05-14T01:12:08.467Z,23.2
2018-05-14T01:12:58.222Z,23.2
2018-05-14T01:13:47.999Z,23.2
2018-05-14T01:14:38.639Z,23.2
2018-05-14T01:15:28.401Z,23.2
2018-05-14T01:16:18.761Z,23.2
2018-05-14T01:17:08.002Z,23.2
2018-05-14T01:17:58.628Z,23.1
2018-05-14T01:18:49.038Z,23.2
2018-05-14T01:19:38.456Z,23.2
2018-05-14T01:20:29.066Z,23.2
2018-05-14T01:21:19.144Z,23.2
2018-05-14T01:22:08.682Z,23.1
2018-05-14T01:22:59.246Z,23.1
2018-05-14T01:23:49.161Z,23.2
2018-05-14T01:24:39.464Z,23.2
2018-05-14T01:25:28.884Z,23.2
2018-05-14T01:26:19.623Z,23.2
2018-05-14T01:27:08.479Z,23.2
2018-05-14T01:27:59.639Z,23.2
2018-05-14T01:28:49.236Z,23.2
2018-05-14T01:29:38.923Z,23.1
2018-05-14T01:30:28.991Z,23.2
2018-05-14T01:31:19.622Z,23.2
2018-05-14T01:32:09.421Z,23.2
2018-05-14T01:33:00.102Z,23.2
2018-05-14T01:33:49.556Z,23.1
2018-05-14T01:34:40.204Z,23.2
2018-05-14T01:35:29.945Z,23.2
2018-05-14T01:36:20.090Z,23.2
2018-05-14T01:37:09.784Z,23.2
2018-05-14T01:37:59.818Z,23.1
2018-05-14T01:38:50.447Z,23.2
2018-05-14T01:39:40.230Z,23.1
2018-05-14T01:40:30.029Z,23.2
2018-05-14T01:41:20.683Z,23.2
2018-05-14T01:42:10.729Z,23.1
2018-05-14T01:43:00.757Z,23.2
2018-05-14T01:43:50.661Z,23.1
2018-05-14T01:44:40.995Z,23.1
2018-05-14T01:45:30.697Z,23.1
2018-05-14T01:46:21.055Z,23.1
2018-05-14T01:47:10.266Z,23.2
2018-05-14T01:48:00.625Z,23.2
2018-05-14T01:48:50.969Z,23.1
2018-05-14T01:49:41.320Z,23.1
2018-05-14T01:50:31.348Z,23.1
2018-05-14T01:51:20.860Z,23.1
2018-05-14T01:52:10.901Z,23.1
2018-05-14T01:53:01.281Z,23.1
2018-05-14T01:53:51.017Z,23.1
2018-05-14T01:54:41.180Z,23.1
2018-05-14T01:55:31.700Z,23.2
2018-05-14T01:56:21.787Z,23.1
2018-05-14T01:57:11.809Z,23.1
2018-05-14T01:58:00.810Z,23.2
2018-05-14T01:58:51.959Z,23.2
2018-05-14T01:59:42.064Z,23.1
2018-05-14T02:00:31.854Z,23.1
2018-05-14T02:01:21.590Z,23.1
2018-05-14T02:02:11.919Z,23.2
2018-05-14T02:03:01.967Z,23.1
2018-05-14T02:03:52.087Z,23.1
2018-05-14T02:04:41.524Z,23.2
2018-05-14T02:05:31.599Z,23.2
2018-05-14T02:06:22.512Z,23.1
2018-05-14T02:07:12.299Z,23.1
2018-05-14T02:08:02.324Z,23.1
2018-05-14T02:08:52.424Z,23.2
2018-05-14T02:09:42.473Z,23.1
2018-05-14T02:10:32.836Z,23.1
2018-05-14T02:11:22.622Z,23.2
2018-05-14T02:12:12.968Z,23.1
2018-05-14T02:13:03.044Z,23.1
2018-05-14T02:13:52.804Z,23.2
2018-05-14T02:14:42.901Z,23.1
2018-05-14T02:15:32.951Z,23.1
2018-05-14T02:16:23.013Z,23.1
2018-05-14T02:17:13.357Z,23.1
2018-05-14T02:18:03.384Z,23.1
2018-05-14T02:18:53.466Z,23.1
2018-05-14T02:19:43.221Z,23.1
2018-05-14T02:20:33.580Z,23.1
2018-05-14T02:21:23.711Z,23.1
2018-05-14T02:22:13.724Z,23.2
2018-05-14T02:23:03.205Z,23.1
2018-05-14T02:23:53.298Z,23.2
2018-05-14T02:24:43.630Z,23.1
2018-05-14T02:25:33.327Z,23.1
2018-05-14T02:26:23.740Z,23.1
2018-05-14T02:27:13.591Z,23.2
2018-05-14T02:28:04.180Z,23.2
2018-05-14T02:28:54.292Z,23.1
2018-05-14T02:29:43.735Z,23.1
2018-05-14T02:30:33.513Z,23.1
2018-05-14T02:31:24.447Z,23.1
2018-05-14T02:32:14.492Z,23.1
2018-05-14T02:33:03.993Z,23.1
2018-05-14T02:33:54.025Z,23.1
2018-05-14T02:34:44.148Z,23.1
2018-05-14T02:35:34.692Z,23.2
2018-05-14T02:36:24.540Z,23.1
2018-05-14T02:37:14.683Z,23.1
2018-05-14T02:38:04.944Z,23.1
2018-05-14T02:38:54.397Z,23.1
2018-05-14T02:39:44.459Z,23.2
2018-05-14T02:40:34.844Z,23.1
2018-05-14T02:41:24.644Z,23.1
2018-05-14T02:42:14.710Z,23.1
2018-05-14T02:43:05.110Z,23.1
2018-05-14T02:43:55.381Z,23.1
2018-05-14T02:44:45.401Z,23.1
2018-05-14T02:45:35.489Z,23.1
2018-05-14T02:46:25.242Z,23.1
2018-05-14T02:47:15.017Z,23.1
2018-05-14T02:48:05.391Z,23.1
2018-05-14T02:48:54.902Z,23.1
2018-05-14T02:49:45.797Z,23.1
2018-05-14T02:50:35.404Z,23.2
2018-05-14T02:51:25.610Z,23.1
2018-05-14T02:52:15.424Z,23.1
2018-05-14T02:53:06.064Z,23.1
2018-05-14T02:53:56.104Z,23.1
2018-05-14T02:54:45.706Z,23.1
2018-05-14T02:55:36.280Z,23.1
2018-05-14T02:56:26.307Z,23.1
2018-05-14T02:57:16.107Z,23.1
2018-05-14T02:58:06.395Z,23.1
2018-05-14T02:58:56.566Z,23.1
2018-05-14T02:59:46.265Z,23.1
2018-05-14T03:00:36.635Z,23.1
2018-05-14T03:01:26.668Z,23.1
2018-05-14T03:02:16.748Z,23.1
2018-05-14T03:03:06.229Z,23.2
2018-05-14T03:03:56.828Z,23.2
2018-05-14T03:04:46.412Z,23.2
2018-05-14T03:05:36.445Z,23.2
2018-05-14T03:06:26.770Z,23.2
2018-05-14T03:07:16.555Z,23.2
2018-05-14T03:08:06.633Z,23.2
2018-05-14T03:08:56.753Z,23.2
2018-05-14T03:09:47.018Z,23.2
2018-05-14T03:10:37.839Z,23.2
2018-05-14T03:11:27.419Z,23.1
2018-05-14T03:12:17.173Z,23.2
2018-05-14T03:13:06.998Z,23.2
2018-05-14T03:13:56.788Z,23.2
2018-05-14T03:14:47.642Z,23.1
2018-05-14T03:15:37.423Z,23.1
2018-05-14T03:16:27.780Z,23.1
2018-05-14T03:17:17.541Z,23.2
2018-05-14T03:18:07.655Z,23.2
2018-05-14T03:18:57.685Z,23.3
2018-05-14T03:19:47.732Z,23.2
2018-05-14T03:20:37.554Z,23.3
2018-05-14T03:21:27.837Z,23.3
2018-05-14T03:22:17.954Z,23.3
2018-05-14T03:23:08.246Z,23.3
2018-05-14T03:23:58.302Z,23.4
2018-05-14T03:24:47.835Z,23.3
2018-05-14T03:25:38.614Z,23.3
2018-05-14T03:26:28.507Z,23.3
2018-05-14T03:27:18.589Z,23.3
2018-05-14T03:28:08.445Z,23.3
2018-05-14T03:28:58.426Z,23.3
2018-05-14T03:29:48.777Z,23.3
2018-05-14T03:30:38.337Z,23.3
2018-05-14T03:31:28.938Z,23.3
2018-05-14T03:32:18.678Z,23.3
2018-05-14T03:33:09.026Z,23.3
2018-05-14T03:33:58.805Z,23.3
2018-05-14T03:34:49.157Z,23.3
2018-05-14T03:35:39.210Z,23.3
2018-05-14T03:36:29.281Z,23.3
2018-05-14T03:37:18.861Z,23.3
2018-05-14T03:38:09.135Z,23.3
2018-05-14T03:38:59.438Z,23.3
2018-05-14T03:39:49.523Z,23.3
2018-05-14T03:40:39.601Z,23.3
2018-05-14T03:41:29.373Z,23.3
2018-05-14T03:42:19.426Z,23.3
2018-05-14T03:43:09.748Z,23.2
2018-05-14T03:43:59.554Z,23.2
2018-05-14T03:44:49.605Z,23.2
2018-05-14T03:45:39.655Z,23.2
2018-05-14T03:46:30.018Z,23.2
2018-05-14T03:47:20.158Z,23.2
2018-05-14T03:48:09.328Z,23.2
2018-05-14T03:49:00.217Z,23.2
2018-05-14T03:49:49.795Z,23.2
2018-05-14T03:50:40.357Z,23.2
2018-05-14T03:51:30.415Z,23.2
2018-05-14T03:52:20.163Z,23.2
2018-05-14T03:53:10.503Z,23.1
2018-05-14T03:54:00.103Z,23.2
2018-05-14T03:54:50.396Z,23.2
2018-05-14T03:55:40.731Z,23.2
2018-05-14T03:56:30.267Z,23.2
2018-05-14T03:57:20.865Z,23.2
2018-05-14T03:58:10.445Z,23.1
2018-05-14T03:58:59.950Z,23.1
2018-05-14T03:59:50.225Z,23.1
2018-05-14T04:00:40.067Z,23.1
2018-05-14T04:01:30.128Z,23.1
2018-05-14T04:02:21.518Z,23.1
2018-05-14T04:03:10.341Z,23.1
2018-05-14T04:04:00.607Z,23.1
2018-05-14T04:04:50.107Z,23.1
2018-05-14T04:05:41.270Z,23.1
2018-05-14T04:06:30.799Z,23.1
2018-05-14T04:07:20.813Z,23.1
2018-05-14T04:08:11.174Z,23.1
2018-05-14T04:09:01.148Z,23.1
2018-05-14T04:09:51.484Z,23.1
2018-05-14T04:10:41.268Z,23.1
2018-05-14T04:11:31.347Z,23.1
2018-05-14T04:12:22.097Z,23.1
2018-05-14T04:13:12.037Z,23.1
2018-05-14T04:14:01.265Z,23.1
2018-05-14T04:14:51.893Z,23.1
2018-05-14T04:15:42.212Z,23.1
2018-05-14T04:16:32.534Z,23.1
2018-05-14T04:17:22.359Z,23.1
2018-05-14T04:18:12.421Z,23.1
2018-05-14T04:19:02.500Z,23.1
2018-05-14T04:19:51.998Z,23.1
2018-05-14T04:20:42.329Z,23.1
2018-05-14T04:21:32.130Z,23.1
2018-05-14T04:22:22.429Z,23.1
2018-05-14T04:23:11.979Z,23.1
2018-05-14T04:24:02.578Z,23.1
2018-05-14T04:24:52.923Z,23.1
2018-05-14T04:25:42.702Z,23.1
2018-05-14T04:26:32.781Z,23.1
2018-05-14T04:27:22.803Z,23
2018-05-14T04:28:12.855Z,23.1
2018-05-14T04:29:02.956Z,23.1
2018-05-14T04:29:53.005Z,23.1
2018-05-14T04:30:42.844Z,23.1
2018-05-14T04:31:32.335Z,23.1
2018-05-14T04:32:22.903Z,23.1
2018-05-14T04:33:12.977Z,23
2018-05-14T04:34:03.584Z,23
2018-05-14T04:34:52.577Z,23
2018-05-14T04:35:43.453Z,23
2018-05-14T04:36:33.222Z,23.1
2018-05-14T04:37:23.585Z,23.1
2018-05-14T04:38:13.349Z,23
2018-05-14T04:39:03.417Z,23
2018-05-14T04:39:54.126Z,23
2018-05-14T04:40:43.812Z,23.1
2018-05-14T04:41:34.159Z,23
2018-05-14T04:42:23.985Z,23
2018-05-14T04:43:13.970Z,23
2018-05-14T04:44:03.772Z,23
2018-05-14T04:44:54.398Z,23
2018-05-14T04:45:44.221Z,23
2018-05-14T04:46:34.225Z,23
2018-05-14T04:47:24.375Z,23
2018-05-14T04:48:14.090Z,23
2018-05-14T04:49:03.899Z,23
2018-05-14T04:49:54.533Z,23
2018-05-14T04:50:44.551Z,23
2018-05-14T04:51:34.125Z,23
2018-05-14T04:52:24.421Z,23
2018-05-14T04:53:14.789Z,23
2018-05-14T04:54:05.081Z,23
2018-05-14T04:54:54.906Z,23
2018-05-14T04:55:44.955Z,23
2018-05-14T04:56:35.023Z,23
2018-05-14T04:57:25.124Z,23
2018-05-14T04:58:15.212Z,23
2018-05-14T04:59:05.453Z,23
2018-05-14T04:59:55.521Z,23
2018-05-14T05:00:45.170Z,23
2018-05-14T05:01:34.307Z,23
2018-05-14T05:02:25.047Z,22.9
2018-05-14T05:03:15.247Z,23
2018-05-14T05:04:05.269Z,22.9
2018-05-14T05:04:55.968Z,23
2018-05-14T05:05:46.006Z,23
2018-05-14T05:06:35.498Z,23
2018-05-14T05:07:25.547Z,22.9
2018-05-14T05:08:15.601Z,23
2018-05-14T05:09:05.660Z,23
2018-05-14T05:09:55.720Z,23
2018-05-14T05:10:46.082Z,22.9
2018-05-14T05:11:36.954Z,23
2018-05-14T05:12:26.240Z,22.9
2018-05-14T05:13:15.735Z,23
2018-05-14T05:14:06.358Z,22.9
2018-05-14T05:14:56.406Z,22.9
2018-05-14T05:15:46.259Z,23
2018-05-14T05:16:36.540Z,22.9
2018-05-14T05:17:25.741Z,22.9
2018-05-14T05:18:16.389Z,22.9
2018-05-14T05:19:07.090Z,22.9
2018-05-14T05:19:56.766Z,22.9
2018-05-14T05:20:47.142Z,22.9
2018-05-14T05:21:35.570Z,22.9
2018-05-14T05:22:26.022Z,22.9
2018-05-14T05:23:17.349Z,23
2018-05-14T05:24:07.078Z,22.9
2018-05-14T05:24:56.870Z,22.9
2018-05-14T05:25:47.519Z,22.9
2018-05-14T05:26:37.271Z,22.9
2018-05-14T05:27:26.570Z,22.9
2018-05-14T05:28:17.630Z,22.9
2018-05-14T05:29:06.958Z,22.9
2018-05-14T05:29:57.008Z,22.9
2018-05-14T05:30:47.063Z,22.8
2018-05-14T05:31:37.350Z,22.8
2018-05-14T05:32:27.478Z,22.8
2018-05-14T05:33:17.281Z,22.8
2018-05-14T05:34:07.405Z,22.8
2018-05-14T05:34:58.138Z,22.7
2018-05-14T05:35:48.292Z,22.7
2018-05-14T05:36:37.998Z,22.7
2018-05-14T05:37:28.305Z,22.6
2018-05-14T05:38:18.107Z,22.6
2018-05-14T05:39:08.241Z,22.6
2018-05-14T05:39:57.689Z,22.6
2018-05-14T05:40:48.310Z,22.5
2018-05-14T05:41:38.089Z,22.5
2018-05-14T05:42:28.446Z,22.5
2018-05-14T05:43:18.472Z,22.4
2018-05-14T05:44:08.572Z,22.4
2018-05-14T05:44:58.645Z,22.4
2018-05-14T05:45:48.984Z,22.4
2018-05-14T05:46:38.461Z,22.4
2018-05-14T05:47:29.070Z,22.4
2018-05-14T05:48:18.563Z,22.4
2018-05-14T05:49:08.936Z,22.4
2018-05-14T05:49:58.759Z,22.4
2018-05-14T05:50:48.761Z,22.4
2018-05-14T05:51:38.833Z,22.4
2018-05-14T05:52:29.708Z,22.4
2018-05-14T05:53:19.222Z,22.4
2018-05-14T05:54:09.600Z,22.4
2018-05-14T05:54:59.380Z,22.4
2018-05-14T05:55:49.423Z,22.4
2018-05-14T05:56:38.968Z,22.4
2018-05-14T05:57:29.848Z,22.4
2018-05-14T05:58:19.372Z,22.4
2018-05-14T05:59:08.550Z,22.4
2018-05-14T05:59:59.482Z,22.4
2018-05-14T06:00:49.237Z,22.4
2018-05-14T06:01:40.229Z,22.4
2018-05-14T06:02:29.626Z,22.4
2018-05-14T06:03:19.435Z,22.4
2018-05-14T06:04:09.808Z,22.4
2018-05-14T06:05:00.112Z,22.4
2018-05-14T06:05:50.461Z,22.4
2018-05-14T06:06:40.043Z,22.4
2018-05-14T06:07:30.006Z,22.5
2018-05-14T06:08:20.627Z,22.5
2018-05-14T06:09:10.720Z,22.5
2018-05-14T06:09:59.952Z,22.5
2018-05-14T06:10:50.362Z,22.5
2018-05-14T06:11:40.916Z,22.5
2018-05-14T06:12:30.129Z,22.5
2018-05-14T06:13:21.003Z,22.5
2018-05-14T06:14:10.814Z,22.5
2018-05-14T06:15:01.159Z,22.5
2018-05-14T06:15:50.706Z,22.5
2018-05-14T06:16:40.976Z,22.5
2018-05-14T06:17:30.481Z,22.5
2018-05-14T06:18:20.827Z,22.5
2018-05-14T06:19:11.169Z,22.5
2018-05-14T06:20:01.556Z,22.5
2018-05-14T06:20:51.037Z,22.5
2018-05-14T06:21:41.659Z,22.5
2018-05-14T06:22:31.788Z,22.5
2018-05-14T06:23:21.756Z,24
2018-05-14T06:24:11.564Z,26.6
2018-05-14T06:25:01.599Z,29.1
2018-05-14T06:25:51.688Z,31.6
2018-05-14T06:26:42.027Z,32.5
2018-05-14T06:27:31.817Z,32.5
2018-05-14T06:28:21.598Z,31.4
2018-05-14T06:29:11.929Z,29.9
2018-05-14T06:30:02.336Z,28.9
2018-05-14T06:30:52.096Z,28.5
2018-05-14T06:31:42.338Z,28.3
2018-05-14T06:32:31.832Z,28.2
2018-05-14T06:33:22.553Z,28.4
2018-05-14T06:34:12.350Z,30.1
2018-05-14T06:35:02.788Z,31.8
2018-05-14T06:35:53.085Z,33.4
2018-05-14T06:36:42.781Z,34.4
2018-05-14T06:37:32.591Z,34.8
2018-05-14T06:38:22.611Z,34.9
2018-05-14T06:39:11.886Z,35
2018-05-14T06:40:02.739Z,35.2
2018-05-14T06:40:52.826Z,35.5
2018-05-14T06:41:42.507Z,35.9
2018-05-14T06:42:32.638Z,36.1
2018-05-14T06:43:23.012Z,36.2
2018-05-14T06:44:13.346Z,36.3
2018-05-14T06:45:02.586Z,36.5
2018-05-14T06:45:52.218Z,36.7
2018-05-14T06:46:43.245Z,36.9
2018-05-14T06:47:33.303Z,37.1
2018-05-14T06:48:23.114Z,37.3
2018-05-14T06:49:13.774Z,37.4
2018-05-14T06:50:03.013Z,37.6
2018-05-14T06:50:52.990Z,37.8
2018-05-14T06:51:43.365Z,38
2018-05-14T06:52:33.410Z,38.3
2018-05-14T06:53:23.147Z,38.4
2018-05-14T06:54:13.972Z,38.6
2018-05-14T06:55:03.961Z,38.7
2018-05-14T06:55:53.953Z,38.8
2018-05-14T06:56:44.098Z,38.9
2018-05-14T06:57:33.506Z,39.1
2018-05-14T06:58:24.424Z,39.3
2018-05-14T06:59:14.479Z,39.5
2018-05-14T07:00:04.541Z,39.7
2018-05-14T07:00:54.028Z,39.9
2018-05-14T07:01:44.087Z,40
2018-05-14T07:02:34.201Z,40.2
2018-05-14T07:03:24.852Z,40.4
2018-05-14T07:04:15.014Z,40.6
2018-05-14T07:05:04.479Z,40.8
2018-05-14T07:05:55.015Z,40.9
2018-05-14T07:06:44.769Z,41.1
2018-05-14T07:07:35.262Z,41.3
2018-05-14T07:08:24.574Z,41.4
2018-05-14T07:09:14.674Z,41.6
2018-05-14T07:10:05.265Z,41.8
2018-05-14T07:10:55.054Z,41.9
2018-05-14T07:11:43.725Z,42.2
2018-05-14T07:12:35.221Z,42.3
2018-05-14T07:13:24.681Z,42.5
2018-05-14T07:14:14.761Z,42.7
2018-05-14T07:15:05.494Z,42.8
2018-05-14T07:15:55.548Z,43
2018-05-14T07:16:45.483Z,43.2
2018-05-14T07:17:35.959Z,43.3
2018-05-14T07:18:25.631Z,43.5
2018-05-14T07:19:16.229Z,43.7
2018-05-14T07:20:04.757Z,43.9
2018-05-14T07:20:55.553Z,44.1
2018-05-14T07:21:45.311Z,44.2
2018-05-14T07:22:35.937Z,44.2
2018-05-14T07:23:26.021Z,44.1
2018-05-14T07:24:16.072Z,44.1
2018-05-14T07:25:06.163Z,43.7
2018-05-14T07:25:56.193Z,43.4
2018-05-14T07:26:46.272Z,43
2018-05-14T07:27:35.778Z,42.6
2018-05-14T07:28:26.119Z,42.3
2018-05-14T07:29:16.740Z,42.1
2018-05-14T07:30:06.577Z,41.9
2018-05-14T07:30:56.572Z,41.8
2018-05-14T07:31:45.891Z,41.8
2018-05-14T07:32:36.480Z,41.8
2018-05-14T07:33:26.951Z,41.4
2018-05-14T07:34:16.793Z,41
2018-05-14T07:35:06.648Z,40.8
2018-05-14T07:35:57.038Z,40.6
2018-05-14T07:36:46.730Z,40.3
2018-05-14T07:37:37.380Z,40.3
2018-05-14T07:38:26.583Z,40.4
2018-05-14T07:39:17.485Z,40.4
2018-05-14T07:40:06.957Z,40.5
2018-05-14T07:40:57.043Z,40.6
2018-05-14T07:41:47.380Z,40.8
2018-05-14T07:42:37.717Z,40.9
2018-05-14T07:43:27.509Z,41.2
2018-05-14T07:44:17.579Z,41.4
2018-05-14T07:45:07.914Z,41.7
2018-05-14T07:45:57.797Z,41.8
2018-05-14T07:46:48.041Z,41.9
2018-05-14T07:47:37.820Z,42.1
2018-05-14T07:48:27.880Z,42.4
2018-05-14T07:49:18.182Z,42.6
2018-05-14T07:50:08.032Z,42.8
2018-05-14T07:50:57.767Z,43
2018-05-14T07:51:48.156Z,43.3
2018-05-14T07:52:38.228Z,43.5
2018-05-14T07:53:28.527Z,43.7
2018-05-14T07:54:18.607Z,43.9
2018-05-14T07:55:08.355Z,44.2
2018-05-14T07:55:58.179Z,44.4
2018-05-14T07:56:48.073Z,44.7
2018-05-14T07:57:38.055Z,44.8
2018-05-14T07:58:28.064Z,44.9
2018-05-14T07:59:18.409Z,45.1
2018-05-14T08:00:09.139Z,45.3
2018-05-14T08:00:57.787Z,45.4
2018-05-14T08:01:48.865Z,45.7
2018-05-14T08:02:38.753Z,45.8
2018-05-14T08:03:29.273Z,45.8
2018-05-14T08:04:19.342Z,45.8
2018-05-14T08:05:09.324Z,45.6
2018-05-14T08:05:59.266Z,45.6
2018-05-14T08:06:49.230Z,45.5
2018-05-14T08:07:39.318Z,45.6
2018-05-14T08:08:29.806Z,45.9
2018-05-14T08:09:18.810Z,46.3
2018-05-14T08:10:09.087Z,46.6
2018-05-14T08:10:59.617Z,46.8
2018-05-14T08:11:50.408Z,47.1
2018-05-14T08:12:39.156Z,47.3
2018-05-14T08:13:29.732Z,47.4
2018-05-14T08:14:20.069Z,47.7
2018-05-14T08:15:09.918Z,47.8
2018-05-14T08:15:59.657Z,48.1
2018-05-14T08:16:50.026Z,48
2018-05-14T08:17:40.078Z,47.9
2018-05-14T08:18:29.858Z,48
2018-05-14T08:19:20.175Z,48.1
2018-05-14T08:20:10.008Z,48.3
2018-05-14T08:20:59.777Z,48.5
2018-05-14T08:21:50.753Z,48.6
2018-05-14T08:22:39.351Z,48.8
2018-05-14T08:23:31.664Z,48.9
2018-05-14T08:24:21.040Z,49.1
2018-05-14T08:25:10.617Z,49.3
2018-05-14T08:26:00.224Z,49.5
2018-05-14T08:26:50.854Z,49.7
2018-05-14T08:27:41.084Z,49.9
2018-05-14T08:28:31.288Z,50.1
2018-05-14T08:29:21.068Z,50.3
2018-05-14T08:30:11.043Z,50.4
2018-05-14T08:31:01.606Z,50.4
2018-05-14T08:31:51.139Z,50.3
2018-05-14T08:32:40.646Z,50.1
2018-05-14T08:33:31.065Z,49.9
2018-05-14T08:34:21.479Z,49.8
2018-05-14T08:35:11.155Z,49.8
2018-05-14T08:36:01.496Z,49.8
2018-05-14T08:36:51.277Z,49.8
2018-05-14T08:37:41.032Z,49.9
2018-05-14T08:38:32.144Z,50.1
2018-05-14T08:39:21.926Z,50.5
2018-05-14T08:40:11.368Z,50.8
2018-05-14T08:41:01.901Z,51.1
2018-05-14T08:41:51.764Z,51.4
2018-05-14T08:42:41.381Z,51.6
2018-05-14T08:43:32.065Z,51.7
2018-05-14T08:44:22.038Z,51.8
2018-05-14T08:46:02.565Z,52.1
2018-05-14T08:46:51.162Z,52.3
2018-05-14T08:47:42.043Z,52.2
2018-05-14T08:48:32.675Z,51.8
2018-05-14T08:49:22.175Z,51.5
2018-05-14T08:50:11.903Z,51.2
2018-05-14T08:51:02.014Z,51
2018-05-14T08:51:52.934Z,50.9
2018-05-14T08:52:42.440Z,50.8
2018-05-14T08:53:33.042Z,50.7
2018-05-14T08:54:23.511Z,50.6
2018-05-14T08:55:13.154Z,50.4
2018-05-14T08:56:02.665Z,50.4
2018-05-14T08:56:53.370Z,50.3
2018-05-14T08:57:44.259Z,50.3
2018-05-14T08:58:33.518Z,50.3
2018-05-14T08:59:23.175Z,50.3
2018-05-14T09:00:12.419Z,50.3
2018-05-14T09:01:03.687Z,50.4
2018-05-14T09:01:53.672Z,50.7
2018-05-14T09:02:43.165Z,51
2018-05-14T09:03:33.297Z,51.3
2018-05-14T09:04:22.982Z,51.3
2018-05-14T09:05:12.381Z,51.4
2018-05-14T09:06:03.721Z,51.3
2018-05-14T09:06:53.491Z,51.2
2018-05-14T09:07:43.835Z,51.1
2018-05-14T09:08:33.889Z,51
2018-05-14T09:09:24.254Z,51
2018-05-14T09:10:14.025Z,51.3
2018-05-14T09:11:04.376Z,51.7
2018-05-14T09:11:53.842Z,52.1
2018-05-14T09:12:44.189Z,52.5
2018-05-14T09:13:33.997Z,52.6
2018-05-14T09:14:24.604Z,52.6
2018-05-14T09:15:14.181Z,52.3
2018-05-14T09:16:04.171Z,52.1
2018-05-14T09:16:54.281Z,52.1
2018-05-14T09:17:44.303Z,52.4
2018-05-14T09:18:34.913Z,52.9
2018-05-14T09:19:25.363Z,53.2
2018-05-14T09:20:14.467Z,53.3
2018-05-14T09:21:05.130Z,53.1
2018-05-14T09:21:54.605Z,52.9
2018-05-14T09:22:45.216Z,52.8
2018-05-14T09:23:35.053Z,52.8
2018-05-14T09:24:25.394Z,52.8
2018-05-14T09:25:15.133Z,53.1
2018-05-14T09:26:05.489Z,53.3
2018-05-14T09:26:55.250Z,53.3
2018-05-14T09:27:45.617Z,53.2
2018-05-14T09:28:35.390Z,53.1
2018-05-14T09:29:24.935Z,53.2
2018-05-14T09:30:15.259Z,53.5
2018-05-14T09:31:05.851Z,53.7
2018-05-14T09:31:55.675Z,53.8
2018-05-14T09:32:45.458Z,53.7
2018-05-14T09:33:35.490Z,53.5
2018-05-14T09:34:26.153Z,53.3
2018-05-14T09:35:15.622Z,53.1
2018-05-14T09:36:05.677Z,52.9
2018-05-14T09:36:55.541Z,52.8
2018-05-14T09:37:46.092Z,52.6
2018-05-14T09:38:36.480Z,52.4
2018-05-14T09:39:25.731Z,52.3
2018-05-14T09:40:16.301Z,52.1
2018-05-14T09:41:06.124Z,52
2018-05-14T09:41:56.152Z,51.8
2018-05-14T09:42:46.748Z,51.8
2018-05-14T09:43:36.563Z,51.7
2018-05-14T09:44:26.734Z,51.6
2018-05-14T09:45:16.947Z,51.5
2018-05-14T09:46:06.756Z,51.4
2018-05-14T09:46:55.985Z,51.3
2018-05-14T09:47:47.169Z,51.3
2018-05-14T09:48:36.635Z,51.3
2018-05-14T09:49:26.980Z,51.2
2018-05-14T09:50:16.302Z,51.1
2018-05-14T09:51:07.117Z,51.1
2018-05-14T09:51:57.443Z,51
2018-05-14T09:52:47.216Z,50.9
2018-05-14T09:53:37.378Z,50.9
2018-05-14T09:54:27.185Z,50.8
2018-05-14T09:55:17.129Z,50.7
2018-05-14T09:56:06.079Z,50.6
2018-05-14T09:56:57.269Z,50.6
2018-05-14T09:57:47.036Z,50.4
2018-05-14T09:58:36.850Z,50.3
2018-05-14T09:59:27.120Z,50.1
2018-05-14T10:00:17.833Z,50
2018-05-14T10:01:07.119Z,49.9
2018-05-14T10:01:57.104Z,49.8
2018-05-14T10:02:47.989Z,49.6
2018-05-14T10:03:37.936Z,49.4
2018-05-14T10:04:27.571Z,49.3
2018-05-14T10:05:17.593Z,48.9
2018-05-14T10:06:07.963Z,48.2
2018-05-14T10:06:57.733Z,47.4
2018-05-14T10:07:48.690Z,46.6
2018-05-14T10:08:38.126Z,45.9
2018-05-14T10:09:28.064Z,45.3
2018-05-14T10:10:18.598Z,44.9
2018-05-14T10:11:07.870Z,44.4
2018-05-14T10:11:58.691Z,44.1
2018-05-14T10:12:48.811Z,44.6
2018-05-14T10:13:39.096Z,46.6
2018-05-14T10:14:28.862Z,47.1
2018-05-14T10:15:18.959Z,46.8
2018-05-14T10:16:09.314Z,46.2
2018-05-14T10:16:59.044Z,45.8
2018-05-14T10:17:49.498Z,45.4
2018-05-14T10:18:39.125Z,45.1
2018-05-14T10:19:29.503Z,44.8
2018-05-14T10:20:19.605Z,44.4
2018-05-14T10:21:09.458Z,44.1
2018-05-14T10:21:59.708Z,43.8
2018-05-14T10:22:49.653Z,43.3
2018-05-14T10:23:38.680Z,42.6
2018-05-14T10:24:29.135Z,41.9
2018-05-14T10:25:19.699Z,41.2
2018-05-14T10:26:09.751Z,40.6
2018-05-14T10:26:59.579Z,39.9
2018-05-14T10:27:49.358Z,41
2018-05-14T10:28:40.171Z,42.9
2018-05-14T10:29:30.398Z,42.9
2018-05-14T10:30:19.775Z,40.9
2018-05-14T10:31:10.081Z,39
2018-05-14T10:32:00.802Z,40.5
2018-05-14T10:32:50.221Z,42.5
2018-05-14T10:33:39.738Z,42.6
2018-05-14T10:34:30.649Z,40.8
2018-05-14T10:35:20.149Z,38.8
2018-05-14T10:36:10.314Z,40.6
2018-05-14T10:37:00.290Z,42.4
2018-05-14T10:37:50.357Z,43.3
2018-05-14T10:38:40.937Z,42.9
2018-05-14T10:39:30.776Z,41.3
2018-05-14T10:40:20.566Z,40.8
2018-05-14T10:41:10.307Z,42.7
2018-05-14T10:42:00.684Z,43.4
2018-05-14T10:42:51.309Z,43.8
2018-05-14T10:43:40.782Z,44
2018-05-14T10:44:31.408Z,44.1
2018-05-14T10:45:21.151Z,44.3
2018-05-14T10:46:10.945Z,44.4
2018-05-14T10:47:00.748Z,44.4
2018-05-14T10:47:51.687Z,44.4
2018-05-14T10:48:41.438Z,44.4
2018-05-14T10:49:31.803Z,44.4
2018-05-14T10:50:21.840Z,44.3
2018-05-14T10:51:11.393Z,44.3
2018-05-14T10:52:01.959Z,44.2
2018-05-14T10:52:52.196Z,44.1
2018-05-14T10:53:41.339Z,44
2018-05-14T10:54:31.596Z,43.9
2018-05-14T10:55:21.392Z,43.9
2018-05-14T10:56:11.738Z,43.8
2018-05-14T10:57:02.066Z,43.8
2018-05-14T10:57:51.875Z,43.7
2018-05-14T10:58:42.895Z,43.7
2018-05-14T10:59:32.540Z,43.6
2018-05-14T11:00:21.491Z,43.6
2018-05-14T11:01:12.102Z,43.6
2018-05-14T11:02:02.448Z,43.5
2018-05-14T11:02:52.551Z,43.4
2018-05-14T11:03:42.865Z,43.4
2018-05-14T11:04:32.058Z,43.4
2018-05-14T11:05:22.973Z,43.4
2018-05-14T11:06:12.465Z,43.3
2018-05-14T11:07:02.838Z,43.2
2018-05-14T11:07:52.578Z,43.2
2018-05-14T11:08:43.202Z,43.1
2018-05-14T11:09:33.301Z,43.1
2018-05-14T11:10:22.195Z,42.9